createdAt,value
2023-02-20T00:01:54.573Z,48.29
2023-02-20T00:04:56.769Z,48.29
2023-02-20T00:07:59.132Z,48.30
2023-02-20T00:11:01.292Z,48.31
2023-02-20T00:14:03.412Z,48.28
2023-02-20T00:17:05.452Z,48.28
2023-02-20T00:20:08.159Z,48.29
2023-02-20T00:23:10.310Z,48.28
2023-02-20T00:26:14.073Z,48.24
2023-02-20T00:29:21.091Z,48.23
2023-02-20T00:32:23.121Z,48.21
2023-02-20T00:35:26.391Z,48.20
2023-02-20T00:38:28.464Z,48.17
2023-02-20T00:41:30.458Z,48.15
2023-02-20T00:44:32.446Z,48.10
2023-02-20T00:47:34.528Z,48.08
2023-02-20T00:50:39.446Z,48.09
2023-02-20T00:53:41.526Z,47.99
2023-02-20T00:56:43.583Z,47.99
2023-02-20T00:59:45.638Z,48.00
2023-02-20T01:02:47.869Z,47.93
2023-02-20T01:05:49.904Z,47.92
2023-02-20T01:08:52.422Z,47.94
2023-02-20T01:11:54.832Z,47.92
2023-02-20T01:14:56.908Z,47.91
2023-02-20T01:17:59.008Z,47.92
2023-02-20T01:21:01.086Z,47.89
2023-02-20T01:24:03.170Z,47.92
2023-02-20T01:27:05.370Z,47.89
2023-02-20T01:30:08.476Z,47.89
2023-02-20T01:33:10.707Z,47.90
2023-02-20T01:36:13.390Z,47.86
2023-02-20T01:39:22.183Z,47.85
2023-02-20T01:42:25.880Z,47.79
2023-02-20T01:45:36.056Z,47.77
2023-02-20T01:48:38.033Z,47.79
2023-02-20T01:51:44.032Z,47.74
2023-02-20T01:54:51.142Z,47.73
2023-02-20T01:58:02.090Z,47.72
2023-02-20T02:01:04.917Z,47.70
2023-02-20T02:04:10.577Z,47.64
2023-02-20T02:07:12.990Z,47.63
2023-02-20T02:10:20.033Z,47.60
2023-02-20T02:13:22.827Z,47.59
2023-02-20T02:16:30.594Z,47.59
2023-02-20T02:20:06.032Z,47.54
2023-02-20T02:23:29.896Z,47.50
2023-02-20T02:26:54.909Z,47.53
2023-02-20T02:30:04.902Z,47.49
2023-02-20T02:33:15.784Z,47.46
2023-02-20T02:36:32.655Z,47.43
2023-02-20T02:39:54.961Z,47.45
2023-02-20T02:43:18.289Z,47.41
2023-02-20T02:46:27.630Z,47.43
2023-02-20T02:49:40.841Z,47.41
2023-02-20T02:52:49.420Z,47.41
2023-02-20T02:55:51.512Z,47.41
2023-02-20T02:58:55.206Z,47.37
2023-02-20T03:02:01.638Z,47.38
2023-02-20T03:05:06.503Z,47.36
2023-02-20T03:08:14.271Z,47.34
2023-02-20T03:11:21.308Z,47.34
2023-02-20T03:14:50.934Z,47.31
2023-02-20T03:18:01.439Z,47.31
2023-02-20T03:21:11.790Z,47.30
2023-02-20T03:24:16.303Z,47.28
2023-02-20T03:27:18.521Z,47.28
2023-02-20T03:30:39.793Z,47.25
2023-02-20T03:34:32.329Z,47.25
2023-02-20T03:37:56.646Z,47.24
2023-02-20T03:41:19.197Z,47.23
2023-02-20T03:44:24.366Z,47.21
2023-02-20T03:47:28.394Z,47.19
2023-02-20T03:50:30.685Z,47.17
2023-02-20T03:53:33.407Z,47.15
2023-02-20T03:56:41.393Z,47.17
2023-02-20T04:00:02.296Z,47.12
2023-02-20T04:03:13.471Z,47.12
2023-02-20T04:06:17.354Z,47.08
2023-02-20T04:09:22.994Z,47.11
2023-02-20T04:12:28.619Z,47.09
2023-02-20T04:15:33.544Z,47.05
2023-02-20T04:18:38.293Z,47.02
2023-02-20T04:21:49.947Z,47.03
2023-02-20T04:25:04.054Z,47.00
2023-02-20T04:28:06.606Z,47.02
2023-02-20T04:31:10.334Z,47.02
2023-02-20T04:34:12.522Z,46.97
2023-02-20T04:37:16.579Z,46.80
2023-02-20T04:40:20.877Z,46.56
2023-02-20T04:43:22.892Z,46.41
2023-02-20T04:46:24.978Z,46.31
2023-02-20T04:49:27.191Z,46.31
2023-02-20T04:52:29.210Z,46.33
2023-02-20T04:55:31.298Z,46.43
2023-02-20T04:58:36.779Z,46.54
2023-02-20T05:01:39.309Z,46.69
2023-02-20T05:04:41.529Z,46.77
2023-02-20T05:07:43.733Z,46.67
2023-02-20T05:10:47.319Z,46.55
2023-02-20T05:13:49.342Z,46.51
2023-02-20T05:16:51.699Z,46.60
2023-02-20T05:19:53.972Z,46.68
2023-02-20T05:22:56.050Z,46.74
2023-02-20T05:25:58.117Z,46.86
2023-02-20T05:29:00.122Z,46.73
2023-02-20T05:32:02.438Z,46.52
2023-02-20T05:35:04.642Z,46.43
2023-02-20T05:38:06.698Z,46.46
2023-02-20T05:41:08.713Z,46.55
2023-02-20T05:44:11.024Z,46.57
2023-02-20T05:47:13.052Z,46.47
2023-02-20T05:50:15.194Z,46.29
2023-02-20T05:53:17.481Z,46.22
2023-02-20T05:56:20.067Z,46.09
2023-02-20T05:59:24.024Z,46.16
2023-02-20T06:02:26.095Z,46.22
2023-02-20T06:05:28.280Z,46.24
2023-02-20T06:08:30.379Z,46.14
2023-02-20T06:11:32.478Z,46.03
2023-02-20T06:14:34.600Z,45.96
2023-02-20T06:17:36.580Z,45.98
2023-02-20T06:20:38.558Z,46.01
2023-02-20T06:23:43.452Z,46.06
2023-02-20T06:26:46.156Z,45.90
2023-02-20T06:29:49.084Z,45.73
2023-02-20T06:32:51.083Z,45.79
2023-02-20T06:35:53.177Z,46.00
2023-02-20T06:38:57.931Z,46.12
2023-02-20T06:42:00.321Z,46.10
2023-02-20T06:45:02.601Z,45.95
2023-02-20T06:48:05.341Z,45.79
2023-02-20T06:51:07.439Z,45.70
2023-02-20T06:54:12.735Z,45.73
2023-02-20T06:57:15.769Z,45.73
2023-02-20T07:00:18.656Z,45.73
2023-02-20T07:03:20.713Z,45.73
2023-02-20T07:06:23.835Z,45.67
2023-02-20T07:09:25.924Z,45.64
2023-02-20T07:12:31.820Z,45.53
2023-02-20T07:15:33.812Z,45.32
2023-02-20T07:18:35.906Z,45.19
2023-02-20T07:21:38.110Z,45.05
2023-02-20T07:24:41.642Z,45.04
2023-02-20T07:27:43.724Z,44.93
2023-02-20T07:30:48.940Z,44.71
2023-02-20T07:33:51.233Z,44.43
2023-02-20T07:36:53.239Z,44.18
2023-02-20T07:39:55.270Z,44.00
2023-02-20T07:42:57.308Z,43.82
2023-02-20T07:45:59.580Z,43.77
2023-02-20T07:49:03.365Z,43.55
2023-02-20T07:52:05.473Z,43.37
2023-02-20T07:55:07.657Z,43.42
2023-02-20T07:58:10.357Z,43.19
2023-02-20T08:01:12.396Z,43.29
2023-02-20T08:04:14.678Z,43.18
2023-02-20T08:07:16.783Z,43.29
2023-02-20T08:10:21.496Z,43.14
2023-02-20T08:13:23.993Z,43.10
2023-02-20T08:16:26.974Z,43.07
2023-02-20T08:19:29.186Z,42.98
2023-02-20T08:22:41.099Z,43.15
2023-02-20T08:25:43.907Z,43.06
2023-02-20T08:28:47.786Z,43.07
2023-02-20T08:31:49.960Z,43.07
2023-02-20T08:34:52.145Z,43.42
2023-02-20T08:37:54.208Z,43.42
2023-02-20T08:40:56.466Z,43.37
2023-02-20T08:43:58.666Z,43.69
2023-02-20T08:47:00.717Z,43.67
2023-02-20T08:50:02.849Z,43.58
2023-02-20T08:53:04.915Z,43.18
2023-02-20T08:56:07.839Z,42.65
2023-02-20T08:59:10.631Z,42.32
2023-02-20T09:02:20.952Z,41.55
2023-02-20T09:05:23.824Z,41.71
2023-02-20T09:08:25.843Z,41.93
2023-02-20T09:11:28.042Z,42.01
2023-02-20T09:14:30.105Z,41.82
2023-02-20T09:17:32.195Z,41.75
2023-02-20T09:20:34.307Z,41.65
2023-02-20T09:23:36.587Z,41.22
2023-02-20T09:26:38.662Z,41.02
2023-02-20T09:29:42.952Z,40.14
2023-02-20T09:32:47.236Z,39.58
2023-02-20T09:35:51.692Z,41.00
2023-02-20T09:38:53.763Z,40.56
2023-02-20T09:42:26.163Z,40.78
2023-02-20T09:45:32.882Z,40.67
2023-02-20T09:48:57.887Z,41.23
2023-02-20T09:52:06.952Z,44.35
2023-02-20T09:55:15.609Z,45.52
2023-02-20T09:58:42.997Z,44.45
2023-02-20T10:02:02.398Z,43.50
2023-02-20T10:05:34.252Z,42.84
2023-02-20T10:08:36.334Z,42.29
2023-02-20T10:12:00.523Z,41.91
2023-02-20T10:15:24.924Z,41.78
2023-02-20T10:18:38.844Z,41.83
2023-02-20T10:21:52.969Z,41.90
2023-02-20T10:25:19.557Z,41.83
2023-02-20T10:28:23.456Z,41.97
2023-02-20T10:31:43.696Z,41.74
2023-02-20T10:35:04.686Z,41.53
2023-02-20T10:38:10.495Z,41.60
2023-02-20T10:41:34.265Z,41.34
2023-02-20T10:45:05.707Z,41.20
2023-02-20T10:48:15.162Z,40.55
2023-02-20T10:51:41.988Z,40.23
2023-02-20T10:54:50.226Z,40.28
2023-02-20T10:58:18.413Z,40.15
2023-02-20T11:01:23.530Z,40.04
2023-02-20T11:04:30.570Z,39.88
2023-02-20T11:07:32.816Z,39.30
2023-02-20T11:10:35.434Z,39.43
2023-02-20T11:13:37.519Z,39.30
2023-02-20T11:16:46.335Z,39.22
2023-02-20T11:19:57.981Z,36.93
2023-02-20T11:23:01.504Z,36.60
2023-02-20T11:26:27.557Z,36.29
2023-02-20T11:29:55.039Z,36.92
2023-02-20T11:33:21.343Z,36.76
2023-02-20T11:36:31.145Z,35.63
2023-02-20T11:39:34.357Z,37.17
2023-02-20T11:42:37.079Z,37.53
2023-02-20T11:45:39.583Z,38.03
2023-02-20T11:49:08.713Z,38.47
2023-02-20T11:52:20.151Z,38.80
2023-02-20T11:55:27.304Z,39.22
2023-02-20T12:01:59.243Z,40.94
2023-02-20T12:05:11.625Z,40.84
2023-02-20T12:08:38.386Z,40.91
2023-02-20T12:11:40.651Z,40.93
2023-02-20T12:14:42.842Z,40.81
2023-02-20T12:18:12.473Z,40.47
2023-02-20T12:21:25.097Z,40.42
2023-02-20T12:25:09.380Z,40.36
2023-02-20T12:28:33.450Z,40.17
2023-02-20T12:31:58.661Z,40.11
2023-02-20T12:35:21.284Z,39.84
2023-02-20T12:39:05.248Z,39.58
2023-02-20T12:42:34.321Z,39.41
2023-02-20T12:45:45.967Z,39.30
2023-02-20T12:49:18.683Z,39.27
2023-02-20T12:53:04.233Z,39.24
2023-02-20T12:56:18.234Z,39.18
2023-02-20T12:59:30.531Z,39.20
2023-02-20T13:02:54.720Z,38.94
2023-02-20T13:05:57.033Z,38.84
2023-02-20T13:09:08.049Z,39.20
2023-02-20T13:12:17.278Z,39.43
2023-02-20T13:15:33.231Z,39.40
2023-02-20T13:18:47.964Z,39.51
2023-02-20T13:21:50.277Z,39.46
2023-02-20T13:25:15.920Z,39.18
2023-02-20T13:28:22.578Z,39.09
2023-02-20T13:31:44.191Z,39.01
2023-02-20T13:34:46.399Z,39.06
2023-02-20T13:37:53.917Z,39.27
2023-02-20T13:40:55.933Z,39.46
2023-02-20T13:44:43.925Z,39.62
2023-02-20T13:47:45.988Z,39.81
2023-02-20T13:50:48.214Z,39.87
2023-02-20T13:54:03.333Z,39.93
2023-02-20T13:57:18.128Z,40.00
2023-02-20T14:00:45.372Z,40.13
2023-02-20T14:04:01.932Z,40.23
2023-02-20T14:07:04.054Z,40.19
2023-02-20T14:10:15.669Z,40.22
2023-02-20T14:13:39.137Z,40.23
2023-02-20T14:16:44.395Z,40.27
2023-02-20T14:19:48.685Z,40.23
2023-02-20T14:23:05.962Z,40.31
2023-02-20T14:26:24.819Z,40.35
2023-02-20T14:29:31.665Z,40.33
2023-02-20T14:32:34.576Z,40.33
2023-02-20T14:35:57.597Z,40.36
2023-02-20T14:39:26.710Z,40.34
2023-02-20T14:42:29.425Z,40.36
2023-02-20T14:45:32.462Z,40.46
2023-02-20T14:48:40.430Z,40.51
2023-02-20T14:51:43.297Z,40.57
2023-02-20T14:55:00.140Z,40.68
2023-02-20T14:58:16.380Z,40.79
2023-02-20T15:01:27.228Z,40.88
2023-02-20T15:04:29.889Z,41.07
2023-02-20T15:07:32.449Z,41.09
2023-02-20T15:10:38.641Z,41.19
2023-02-20T15:13:46.084Z,41.23
2023-02-20T15:16:48.574Z,41.38
2023-02-20T15:19:52.262Z,41.29
2023-02-20T15:23:21.111Z,41.32
2023-02-20T15:26:33.760Z,41.46
2023-02-20T15:29:36.114Z,41.52
2023-02-20T15:32:40.352Z,41.60
2023-02-20T15:35:42.473Z,41.73
2023-02-20T15:38:44.617Z,41.84
2023-02-20T15:41:48.251Z,41.93
2023-02-20T15:44:50.929Z,41.93
2023-02-20T15:47:53.400Z,42.05
2023-02-20T15:50:55.799Z,42.13
2023-02-20T15:53:59.097Z,42.12
2023-02-20T15:57:01.293Z,42.25
2023-02-20T16:00:03.879Z,42.29
2023-02-20T16:03:06.428Z,42.39
2023-02-20T16:06:08.789Z,42.51
2023-02-20T16:09:11.281Z,42.50
2023-02-20T16:12:25.849Z,41.88
2023-02-20T16:15:28.645Z,41.36
2023-02-20T16:18:30.790Z,41.07
2023-02-20T16:21:32.943Z,40.35
2023-02-20T16:24:36.325Z,40.52
2023-02-20T16:27:38.922Z,40.76
2023-02-20T16:30:45.961Z,41.04
2023-02-20T16:33:49.396Z,41.37
2023-02-20T16:36:52.816Z,41.65
2023-02-20T16:39:55.004Z,41.87
2023-02-20T16:42:57.090Z,42.03
2023-02-20T16:45:59.162Z,42.05
2023-02-20T16:49:01.258Z,42.17
2023-02-20T16:52:19.322Z,42.26
2023-02-20T16:55:35.995Z,42.31
2023-02-20T16:58:38.185Z,42.49
2023-02-20T17:01:40.315Z,42.51
2023-02-20T17:04:42.491Z,42.55
2023-02-20T17:07:44.696Z,42.71
2023-02-20T17:10:46.781Z,42.57
2023-02-20T17:13:48.859Z,42.90
2023-02-20T17:16:51.098Z,43.26
2023-02-20T17:19:55.180Z,43.64
2023-02-20T17:23:04.718Z,43.63
2023-02-20T17:26:09.693Z,43.86
2023-02-20T17:29:12.567Z,43.90
2023-02-20T17:32:15.641Z,43.87
2023-02-20T17:35:18.183Z,43.79
2023-02-20T17:38:20.314Z,43.85
2023-02-20T17:41:22.932Z,43.93
2023-02-20T17:44:29.937Z,43.77
2023-02-20T17:47:33.288Z,43.76
2023-02-20T17:50:35.411Z,43.71
2023-02-20T17:53:37.468Z,43.78
2023-02-20T17:56:46.551Z,43.77
2023-02-20T17:59:49.423Z,43.74
2023-02-20T18:02:51.833Z,43.63
2023-02-20T18:05:55.170Z,43.58
2023-02-20T18:08:57.313Z,43.78
2023-02-20T18:12:00.475Z,43.84
2023-02-20T18:15:02.675Z,43.77
2023-02-20T18:18:05.555Z,43.95
2023-02-20T18:21:17.941Z,44.03
2023-02-20T18:24:26.492Z,44.04
2023-02-20T18:27:28.636Z,44.09
2023-02-20T18:30:30.757Z,44.08
2023-02-20T18:33:32.864Z,44.13
2023-02-20T18:36:35.012Z,44.14
2023-02-20T18:39:37.173Z,44.18
2023-02-20T18:42:39.290Z,44.18
2023-02-20T18:45:41.586Z,44.18
2023-02-20T18:48:43.663Z,44.30
2023-02-20T18:51:45.868Z,44.19
2023-02-20T18:54:48.028Z,44.24
2023-02-20T18:57:51.168Z,44.32
2023-02-20T19:00:53.561Z,44.34
2023-02-20T19:03:55.692Z,44.38
2023-02-20T19:06:59.598Z,44.42
2023-02-20T19:10:02.478Z,44.45
2023-02-20T19:13:04.773Z,44.46
2023-02-20T19:16:07.575Z,44.48
2023-02-20T19:19:13.113Z,44.49
2023-02-20T19:22:17.098Z,44.51
2023-02-20T19:25:21.101Z,44.54
2023-02-20T19:28:23.214Z,44.55
2023-02-20T19:31:25.363Z,44.58
2023-02-20T19:34:27.458Z,44.55
2023-02-20T19:37:29.704Z,44.54
2023-02-20T19:40:31.773Z,44.54
2023-02-20T19:43:33.866Z,44.55
2023-02-20T19:46:36.009Z,44.57
2023-02-20T19:49:38.703Z,44.58
2023-02-20T19:52:42.457Z,44.60
2023-02-20T19:55:44.623Z,44.56
2023-02-20T19:58:46.825Z,44.56
2023-02-20T20:01:59.770Z,44.53
2023-02-20T20:05:01.934Z,44.58
2023-02-20T20:08:06.464Z,44.60
2023-02-20T20:11:08.870Z,44.59
2023-02-20T20:14:11.048Z,44.61
2023-02-20T20:17:13.143Z,44.64
2023-02-20T20:20:16.751Z,44.63
2023-02-20T20:23:19.475Z,44.63
2023-02-20T20:26:29.021Z,44.67
2023-02-20T20:29:31.093Z,44.67
2023-02-20T20:32:33.282Z,44.70
2023-02-20T20:35:35.433Z,44.71
2023-02-20T20:38:37.562Z,44.73
2023-02-20T20:41:44.828Z,44.74
2023-02-20T20:44:47.506Z,44.76
2023-02-20T20:47:49.896Z,44.74
2023-02-20T20:50:51.955Z,44.77
2023-02-20T20:53:54.108Z,44.74
2023-02-20T20:56:56.174Z,44.74
2023-02-20T21:00:00.508Z,44.71
2023-02-20T21:03:04.688Z,44.73
2023-02-20T21:06:06.911Z,44.74
2023-02-20T21:09:08.996Z,44.74
2023-02-20T21:12:12.873Z,44.73
2023-02-20T21:15:15.572Z,44.76
2023-02-20T21:18:17.750Z,44.78
2023-02-20T21:21:26.673Z,44.77
2023-02-20T21:24:28.914Z,44.77
2023-02-20T21:27:31.644Z,44.74
2023-02-20T21:30:34.052Z,44.74
2023-02-20T21:33:36.361Z,44.79
2023-02-20T21:36:38.686Z,44.74
2023-02-20T21:39:41.643Z,44.77
2023-02-20T21:43:09.916Z,44.78
2023-02-20T21:46:12.150Z,44.78
2023-02-20T21:49:14.369Z,44.79
2023-02-20T21:52:17.741Z,44.80
2023-02-20T21:55:20.787Z,44.76
2023-02-20T21:58:41.703Z,44.77
2023-02-20T22:01:43.980Z,44.75
2023-02-20T22:04:46.355Z,44.77
2023-02-20T22:08:07.039Z,44.77
2023-02-20T22:11:27.570Z,44.75
2023-02-20T22:14:48.683Z,44.72
2023-02-20T22:18:09.639Z,44.70
2023-02-20T22:21:36.709Z,44.66
2023-02-20T22:24:57.649Z,44.65
2023-02-20T22:28:18.557Z,44.64
2023-02-20T22:31:39.508Z,44.62
2023-02-20T22:35:10.968Z,44.60
2023-02-20T22:38:32.670Z,44.58
2023-02-20T22:41:53.592Z,44.54
2023-02-20T22:45:14.274Z,44.53
2023-02-20T22:48:35.033Z,44.51
2023-02-20T22:51:55.871Z,44.51
2023-02-20T22:55:16.788Z,44.50
2023-02-20T22:58:37.676Z,44.45
2023-02-20T23:01:58.454Z,44.49
2023-02-20T23:05:19.399Z,44.39
2023-02-20T23:08:40.210Z,44.45
2023-02-20T23:12:00.973Z,44.48
2023-02-20T23:15:21.622Z,44.49
2023-02-20T23:18:42.529Z,44.51
2023-02-20T23:22:03.919Z,44.57
2023-02-20T23:25:24.747Z,44.57
2023-02-20T23:28:45.866Z,44.62
2023-02-20T23:32:06.742Z,44.67
2023-02-20T23:35:28.029Z,44.78
2023-02-20T23:38:48.668Z,44.78
2023-02-20T23:42:09.413Z,44.80
2023-02-20T23:45:30.398Z,44.83
2023-02-20T23:48:51.057Z,44.86
2023-02-20T23:52:16.620Z,44.84
2023-02-20T23:55:37.576Z,44.90
2023-02-20T23:58:58.375Z,44.90
